.
WxDataArchive / Data Records for 2008-04-18
2008-04-17 April 2008 2008-04-19

Data Records for Friday, 18 April 2008

Time	Temp	Chill	HIndex	Humid	Dewpt	 Wind 	HiWind	WindDir	Rain 	Barom 
-----	----	-----	------	-----	-----	------	------	-------	-----	----- 
00:00	56.5	56.5	56.5	67	45.7	0	0	---	0.00	29.953 
00:05	56.2	56.2	56.2	68	45.8	0	0	---	0.00	29.953 
00:10	55.9	55.9	55.9	68	45.5	0	0	---	0.00	29.951 
00:15	55.7	55.7	55.7	69	45.7	0	0	---	0.00	29.951 
00:20	55.4	55.4	55.4	69	45.4	0	0	---	0.00	29.952 
00:25	55.3	55.3	55.3	69	45.3	0	0	---	0.00	29.953 
00:30	55.1	55.1	55.1	70	45.5	0	0	---	0.00	29.952 
00:35	54.8	54.8	54.8	70	45.2	0	0	---	0.00	29.952 
00:40	54.5	54.5	54.5	71	45.3	0	0	---	0.00	29.951 
00:45	54.2	54.2	54.2	72	45.4	0	0	---	0.00	29.951 
00:50	54.1	54.1	54.1	72	45.3	0	0	---	0.00	29.951 
00:55	53.9	53.9	53.9	73	45.4	0	0	---	0.00	29.950 
01:00	54.1	54.1	54.1	73	45.6	0	0	---	0.00	29.949 
01:05	53.9	53.9	53.9	73	45.4	0	0	---	0.00	29.946 
01:10	53.8	53.8	53.8	73	45.3	0	0	---	0.00	29.943 
01:15	53.8	53.8	53.8	73	45.3	0	0	---	0.00	29.940 
01:20	53.8	53.8	53.8	73	45.3	0	0	---	0.00	29.938 
01:25	53.6	53.6	53.6	74	45.5	0	0	---	0.00	29.938 
01:30	53.9	53.9	53.9	73	45.4	0	1	158	0.00	29.937 
01:35	53.9	53.9	53.9	73	45.4	0	1	158	0.00	29.937 
01:40	53.9	53.9	53.9	73	45.4	0	0	---	0.00	29.936 
01:45	53.6	53.6	53.6	73	45.2	0	0	---	0.00	29.934 
01:50	53.3	53.3	53.3	74	45.2	0	0	---	0.00	29.935 
01:55	53.1	53.1	53.1	75	45.4	0	0	---	0.00	29.934 
02:00	52.8	52.8	52.8	76	45.4	0	0	---	0.00	29.933 
02:05	52.5	52.5	52.5	77	45.5	0	0	---	0.00	29.933 
02:10	52.2	52.2	52.2	77	45.2	0	0	---	0.00	29.933 
02:15	51.7	51.7	51.7	77	44.7	0	0	---	0.00	29.933 
02:20	51.4	51.4	51.4	78	44.8	0	0	---	0.00	29.936 
02:25	51.0	51.0	51.0	79	44.7	0	0	---	0.00	29.936 
02:30	50.5	50.5	50.5	80	44.6	0	0	---	0.00	29.935 
02:35	50.1	50.1	50.1	81	44.5	0	0	---	0.00	29.934 
02:40	49.8	49.8	49.8	82	44.5	0	0	---	0.00	29.933 
02:45	49.6	49.6	49.6	83	44.7	0	0	---	0.00	29.934 
02:50	49.6	49.6	49.6	82	44.3	0	0	---	0.00	29.934 
02:55	49.6	49.6	49.6	83	44.7	0	0	---	0.00	29.935 
03:00	49.8	49.8	49.8	82	44.5	0	0	---	0.00	29.933 
03:05	49.6	49.6	49.6	82	44.3	0	0	---	0.00	29.933 
03:10	49.6	49.6	49.6	83	44.7	0	0	---	0.00	29.932 
03:15	49.5	49.5	49.5	84	44.9	0	0	---	0.00	29.930 
03:20	49.2	49.2	49.2	83	44.3	0	0	---	0.00	29.931 
03:25	49.1	49.1	49.1	84	44.5	0	0	---	0.00	29.932 
03:30	49.2	49.2	49.2	84	44.6	0	0	---	0.00	29.934 
03:35	49.2	49.2	49.2	85	44.9	0	0	---	0.00	29.934 
03:40	49.4	49.4	49.4	85	45.1	0	0	---	0.00	29.936 
03:45	49.5	49.5	49.5	85	45.2	0	0	---	0.00	29.936 
03:50	49.6	49.6	49.6	85	45.3	0	0	---	0.00	29.935 
03:55	49.8	49.8	49.8	84	45.2	0	0	---	0.00	29.934 
04:00	49.9	49.9	49.9	84	45.3	0	1	158	0.00	29.932 
04:05	50.4	50.4	50.4	83	45.4	0	0	---	0.00	29.932 
04:10	50.8	50.8	50.8	81	45.2	0	0	---	0.00	29.933 
04:15	51.0	51.0	51.0	80	45.0	0	0	---	0.00	29.932 
04:20	50.8	50.8	50.8	80	44.9	0	0	---	0.00	29.932 
04:25	50.8	50.8	50.8	81	45.2	0	0	---	0.00	29.932 
04:30	50.8	50.8	50.8	81	45.2	0	1	158	0.00	29.934 
04:35	50.8	50.8	50.8	80	44.9	0	0	---	0.00	29.935 
04:40	50.8	50.8	50.8	80	44.9	0	0	---	0.00	29.937 
04:45	51.0	51.0	51.0	80	45.0	0	0	---	0.00	29.937 
04:50	50.8	50.8	50.8	80	44.9	0	0	---	0.00	29.937 
04:55	50.7	50.7	50.7	80	44.8	0	0	---	0.00	29.938 
05:00	50.4	50.4	50.4	81	44.8	0	0	---	0.00	29.938 
05:05	50.2	50.2	50.2	81	44.6	0	0	---	0.00	29.940 
05:10	50.1	50.1	50.1	81	44.5	0	0	---	0.00	29.939 
05:15	50.1	50.1	50.1	81	44.5	0	0	---	0.00	29.940 
05:20	49.8	49.8	49.8	82	44.5	0	0	---	0.00	29.939 
05:25	49.8	49.8	49.8	82	44.5	0	0	---	0.00	29.939 
05:30	49.6	49.6	49.6	82	44.3	0	0	---	0.00	29.939 
05:35	49.8	49.8	49.8	81	44.2	0	0	---	0.00	29.940 
05:40	50.1	50.1	50.1	81	44.5	0	0	---	0.00	29.940 
05:45	50.1	50.1	50.1	81	44.5	0	0	---	0.00	29.940 
05:50	50.2	50.2	50.2	81	44.6	0	0	---	0.00	29.941 
05:55	50.4	50.4	50.4	80	44.5	0	0	---	0.00	29.943 
06:00	50.5	50.5	50.5	79	44.2	0	0	---	0.00	29.944 
06:05	50.8	50.8	50.8	78	44.2	0	0	---	0.00	29.948 
06:10	50.8	50.8	50.8	78	44.2	0	0	---	0.00	29.949 
06:15	50.8	50.8	50.8	79	44.5	0	0	---	0.00	29.950 
06:20	50.7	50.7	50.7	79	44.4	0	0	---	0.00	29.952 
06:25	50.5	50.5	50.5	79	44.2	0	0	---	0.00	29.951 
06:30	50.4	50.4	50.4	80	44.5	0	0	---	0.00	29.952 
06:35	50.5	50.5	50.5	80	44.6	0	0	---	0.00	29.951 
06:40	51.0	51.0	51.0	79	44.7	0	1	158	0.00	29.952 
06:45	51.7	51.7	51.7	77	44.7	0	1	158	0.00	29.952 
06:50	52.5	52.5	52.5	76	45.2	0	1	158	0.00	29.953 
06:55	53.3	53.3	53.3	74	45.2	0	1	158	0.00	29.953 
07:00	54.1	54.1	54.1	72	45.3	0	1	158	0.00	29.954 
07:05	54.7	54.7	54.7	71	45.5	0	1	158	0.00	29.956 
07:10	55.7	55.7	55.7	69	45.7	0	1	158	0.00	29.956 
07:15	56.6	56.6	56.6	67	45.8	0	1	158	0.00	29.954 
07:20	57.3	57.3	57.3	65	45.6	0	2	158	0.00	29.954 
07:25	58.0	58.0	58.0	65	46.3	0	2	158	0.00	29.954 
07:30	58.6	58.6	58.6	63	46.0	1	2	158	0.00	29.953 
07:35	58.9	58.9	58.9	63	46.3	0	1	158	0.00	29.953 
07:40	59.3	59.3	59.3	62	46.3	0	2	158	0.00	29.953 
07:45	60.1	60.1	60.1	61	46.6	1	3	158	0.00	29.952 
07:50	60.5	60.5	60.5	61	47.0	0	1	158	0.00	29.951 
07:55	61.2	61.2	61.2	59	46.8	0	3	112	0.00	29.950 
08:00	61.5	61.5	61.5	60	47.5	1	3	112	0.00	29.948 
08:05	62.3	62.3	62.3	58	47.3	1	3	112	0.00	29.951 
08:10	62.9	62.9	62.9	56	47.0	1	5	112	0.00	29.947 
08:15	63.4	63.4	63.4	57	47.9	1	3	112	0.00	29.945 
08:20	63.5	63.5	63.5	55	47.0	1	3	112	0.00	29.943 
08:25	63.9	63.9	63.9	55	47.4	1	7	112	0.00	29.942 
08:30	64.0	64.0	64.0	56	48.0	1	3	90	0.00	29.941 
08:35	64.7	64.7	64.7	54	47.7	1	4	90	0.00	29.941 
08:40	65.5	65.5	65.5	55	48.9	1	3	45	0.00	29.940 
08:45	66.4	66.4	66.4	53	48.7	1	2	68	0.00	29.940 
08:50	66.9	66.9	66.9	51	48.2	1	4	68	0.00	29.939 
08:55	67.4	67.4	67.4	52	49.2	1	4	112	0.00	29.936 
09:00	67.6	67.6	67.6	51	48.8	1	4	112	0.00	29.936 
09:05	67.8	67.8	67.8	50	48.5	3	9	90	0.00	29.938 
09:10	67.8	67.8	67.8	51	49.0	1	4	68	0.00	29.938 
09:15	68.1	68.1	68.1	50	48.7	2	6	90	0.00	29.939 
09:20	68.1	68.1	68.1	51	49.3	1	5	248	0.00	29.941 
09:25	68.8	68.8	68.8	49	48.8	2	6	270	0.00	29.939 
09:30	69.4	69.4	69.4	50	49.9	1	4	68	0.00	29.938 
09:35	69.8	69.8	69.8	50	50.3	2	4	112	0.00	29.936 
09:40	70.1	70.1	70.1	47	48.9	3	6	90	0.00	29.937 
09:45	70.1	70.1	70.1	49	50.0	2	5	90	0.00	29.937 
09:50	69.9	69.9	69.9	48	49.3	2	5	90	0.00	29.936 
09:55	70.3	70.3	70.3	47	49.1	3	10	248	0.00	29.936 
10:00	70.3	70.3	70.3	47	49.1	3	9	270	0.00	29.937 
10:05	70.6	70.6	70.6	48	49.9	3	7	90	0.00	29.938 
10:10	70.8	70.8	70.8	48	50.1	2	6	45	0.00	29.937 
10:15	71.3	71.3	71.3	48	50.6	2	6	112	0.00	29.935 
10:20	71.8	71.8	71.8	48	51.0	1	5	112	0.00	29.932 
10:25	72.3	72.3	72.3	45	49.8	2	5	90	0.00	29.932 
10:30	72.5	72.5	72.5	43	48.7	2	6	112	0.00	29.931 
10:35	72.3	72.3	72.3	46	50.3	2	6	90	0.00	29.931 
10:40	72.1	72.1	72.1	43	48.4	3	9	90	0.00	29.932 
10:45	72.5	72.5	72.5	44	49.3	2	6	90	0.00	29.931 
10:50	72.8	72.8	72.8	43	49.0	2	5	90	0.00	29.931 
10:55	73.0	73.0	73.0	41	47.9	3	12	90	0.00	29.931 
11:00	72.7	72.7	72.7	42	48.3	3	12	90	0.00	29.929 
11:05	72.5	72.5	72.5	42	48.1	3	7	248	0.00	29.923 
11:10	72.8	72.8	72.8	45	50.2	2	5	248	0.00	29.922 
11:15	73.3	73.3	73.3	42	48.8	2	5	270	0.00	29.918 
11:20	73.3	73.3	73.3	39	46.8	3	6	248	0.00	29.919 
11:25	73.2	73.2	73.2	42	48.7	3	9	248	0.00	29.918 
11:30	73.0	73.0	73.0	43	49.2	2	6	270	0.00	29.916 
11:35	73.0	73.0	73.0	42	48.5	2	5	112	0.00	29.914 
11:40	73.7	73.7	73.7	39	47.2	3	10	90	0.00	29.910 
11:45	74.0	74.0	74.0	35	44.6	2	6	90	0.00	29.910 
11:50	74.0	74.0	74.0	38	46.8	3	7	90	0.00	29.911 
11:55	73.7	73.7	73.7	44	50.4	3	7	248	0.00	29.906 
12:00	74.0	74.0	74.0	36	45.3	4	11	90	0.00	29.903 
12:05	74.0	74.0	74.0	36	45.3	4	9	90	0.00	29.905 
12:10	74.4	74.4	74.4	39	47.8	2	5	248	0.00	29.903 
12:15	74.6	74.6	74.6	36	45.9	3	11	68	0.00	29.902 
12:20	74.6	74.6	74.6	39	48.0	3	7	90	0.00	29.900 
12:25	74.4	74.4	74.4	38	47.1	3	11	68	0.00	29.896 
12:30	74.4	74.4	74.4	37	46.4	3	9	248	0.00	29.893 
12:35	74.4	74.4	74.4	37	46.4	1	5	112	0.00	29.889 
12:40	74.6	74.6	74.6	41	49.3	4	12	112	0.00	29.888 
12:45	74.9	74.9	74.9	37	46.9	2	9	112	0.00	29.885 
12:50	74.9	74.9	74.9	35	45.4	3	11	270	0.00	29.885 
12:55	74.7	74.7	74.7	35	45.2	4	12	248	0.00	29.884 
13:00	74.9	74.9	74.9	36	46.1	3	7	112	0.00	29.878 
13:05	74.7	74.7	74.7	36	46.0	3	11	90	0.00	29.875 
13:10	74.6	74.6	74.6	32	42.8	5	14	112	0.00	29.873 
13:15	74.6	74.6	74.6	37	46.6	3	7	90	0.00	29.871 
13:20	74.9	74.9	74.9	35	45.4	4	10	90	0.00	29.871 
13:25	75.3	75.3	77.3	34	45.0	3	10	248	0.00	29.870 
13:30	75.6	75.6	77.4	35	46.0	2	6	248	0.00	29.865 
13:35	75.6	75.6	77.3	33	44.5	4	10	90	0.00	29.866 
13:40	75.4	75.4	77.3	33	44.3	4	8	90	0.00	29.867 
13:45	75.6	75.6	77.4	35	46.0	2	6	90	0.00	29.860 
13:50	75.6	75.6	77.2	31	42.8	4	12	90	0.00	29.860 
13:55	75.3	75.3	77.1	31	42.6	3	11	270	0.00	29.858 
14:00	75.4	75.4	77.3	34	45.1	3	12	270	0.00	29.857 
14:05	75.3	75.3	77.2	32	43.4	4	11	90	0.00	29.859 
14:10	75.3	75.3	77.1	31	42.6	4	9	90	0.00	29.858 
14:15	75.8	75.8	77.4	33	44.6	3	10	90	0.00	29.854 
14:20	76.0	76.0	77.3	30	42.3	4	11	90	0.00	29.850 
14:25	76.1	76.1	77.1	27	39.7	3	10	90	0.00	29.849 
14:30	76.1	76.1	77.4	31	43.3	3	9	112	0.00	29.845 
14:35	75.8	75.8	77.3	31	43.0	2	6	22	0.00	29.844 
14:40	75.8	75.8	77.6	36	46.9	2	8	90	0.00	29.842 
14:45	76.1	76.1	77.2	28	40.6	2	6	248	0.00	29.842 
14:50	76.5	76.5	77.3	28	41.0	2	10	68	0.00	29.842 
14:55	76.5	76.5	77.5	30	42.7	2	5	112	0.00	29.841 
15:00	76.7	76.7	77.4	28	41.1	3	6	112	0.00	29.840 
15:05	76.7	76.7	77.4	28	41.1	4	9	90	0.00	29.838 
15:10	76.5	76.5	77.3	28	41.0	4	12	90	0.00	29.837 
15:15	76.5	76.5	77.3	27	40.0	3	10	112	0.00	29.828 
15:20	76.7	76.7	77.3	27	40.2	4	9	90	0.00	29.827 
15:25	76.5	76.5	77.3	27	40.0	4	12	90	0.00	29.826 
15:30	76.3	76.3	77.2	27	39.8	5	13	90	0.00	29.822 
15:35	76.5	76.5	77.1	25	38.0	4	11	90	0.00	29.824 
15:40	76.3	76.3	77.2	27	39.8	4	10	90	0.00	29.817 
15:45	76.5	76.5	77.3	27	40.0	3	12	90	0.00	29.817 
15:50	76.7	76.7	77.3	27	40.2	2	7	90	0.00	29.813 
15:55	76.7	76.7	77.2	25	38.2	5	13	90	0.00	29.814 
16:00	76.7	76.7	77.3	26	39.2	3	10	90	0.00	29.811 
16:05	76.5	76.5	77.1	25	38.0	6	12	90	0.00	29.811 
16:10	76.5	76.5	77.3	27	40.0	4	10	90	0.00	29.810 
16:15	76.5	76.5	77.3	27	40.0	3	7	68	0.00	29.809 
16:20	76.5	76.5	77.3	28	41.0	3	11	90	0.00	29.806 
16:25	76.5	76.5	77.3	27	40.0	3	9	112	0.00	29.805 
16:30	76.3	76.3	77.1	26	38.9	3	9	90	0.00	29.804 
16:35	76.5	76.5	77.2	26	39.0	3	6	112	0.00	29.802 
16:40	76.7	76.7	77.3	26	39.2	2	6	90	0.00	29.801 
16:45	76.5	76.5	77.1	25	38.0	4	11	112	0.00	29.803 
16:50	76.3	76.3	77.2	27	39.8	3	10	90	0.00	29.800 
16:55	76.1	76.1	77.2	28	40.6	1	5	90	0.00	29.800 
17:00	75.8	75.8	76.9	26	38.5	3	9	112	0.00	29.797 
17:05	75.6	75.6	77.0	28	40.2	2	7	90	0.00	29.796 
17:10	75.4	75.4	76.9	28	40.0	3	11	112	0.00	29.795 
17:15	75.4	75.4	76.9	28	40.0	2	5	68	0.00	29.794 
17:20	75.4	75.4	76.9	28	40.0	2	7	68	0.00	29.794 
17:25	75.3	75.3	76.8	27	39.0	3	6	90	0.00	29.795 
17:30	75.1	75.1	76.8	28	39.8	2	5	90	0.00	29.795 
17:35	75.1	75.1	76.7	27	38.8	2	7	112	0.00	29.795 
17:40	74.7	74.7	74.7	28	39.4	2	5	112	0.00	29.794 
17:45	74.7	74.7	74.7	28	39.4	2	7	112	0.00	29.794 
17:50	74.9	74.9	74.9	27	38.7	2	10	112	0.00	29.794 
17:55	74.7	74.7	74.7	28	39.4	3	6	90	0.00	29.795 
18:00	74.7	74.7	74.7	27	38.5	2	6	112	0.00	29.794 
18:05	74.4	74.4	74.4	28	39.2	2	7	90	0.00	29.793 
18:10	74.2	74.2	74.2	28	39.0	3	9	112	0.00	29.791 
18:15	74.0	74.0	74.0	28	38.8	3	9	112	0.00	29.789 
18:20	73.9	73.9	73.9	27	37.8	3	11	90	0.00	29.791 
18:25	73.7	73.7	73.7	28	38.6	3	6	90	0.00	29.792 
18:30	73.5	73.5	73.5	29	39.3	2	6	90	0.00	29.793 
18:35	73.3	73.3	73.3	29	39.1	2	6	90	0.00	29.795 
18:40	73.2	73.2	73.2	29	39.0	2	7	112	0.00	29.796 
18:45	73.0	73.0	73.0	29	38.9	2	3	90	0.00	29.796 
18:50	73.0	73.0	73.0	28	38.0	2	6	112	0.00	29.797 
18:55	72.7	72.7	72.7	29	38.6	2	6	112	0.00	29.797 
19:00	72.5	72.5	72.5	29	38.4	2	6	112	0.00	29.796 
19:05	72.3	72.3	72.3	30	39.1	1	4	112	0.00	29.791 
19:10	72.0	72.0	72.0	30	38.9	1	4	135	0.00	29.792 
19:15	71.5	71.5	71.5	30	38.4	2	4	112	0.00	29.793 
19:20	71.1	71.1	71.1	30	38.1	1	4	68	0.00	29.796 
19:25	70.8	70.8	70.8	31	38.7	0	3	90	0.00	29.800 
19:30	70.4	70.4	70.4	30	37.5	2	6	112	0.00	29.800 
19:35	70.3	70.3	70.3	30	37.4	1	4	135	0.00	29.801 
19:40	69.9	69.9	69.9	30	37.0	0	2	112	0.00	29.799 
19:45	69.6	69.6	69.6	31	37.6	0	1	112	0.00	29.800 
19:50	69.1	69.1	69.1	32	38.0	0	2	112	0.00	29.803 
19:55	68.4	68.4	68.4	34	38.9	0	1	112	0.00	29.804 
20:00	67.8	67.8	67.8	35	39.1	0	1	112	0.00	29.806 
20:05	66.9	66.9	66.9	35	38.4	0	1	112	0.00	29.802 
20:10	66.6	66.6	66.6	36	38.8	0	2	135	0.00	29.802 
20:15	66.3	66.3	66.3	37	39.2	0	1	135	0.00	29.802 
20:20	65.6	65.6	65.6	39	40.0	0	1	135	0.00	29.801 
20:25	65.2	65.2	65.2	39	39.6	0	1	135	0.00	29.803 
20:30	64.7	64.7	64.7	38	38.5	0	1	135	0.00	29.801 
20:35	64.5	64.5	64.5	39	39.0	0	1	135	0.00	29.801 
20:40	64.0	64.0	64.0	40	39.2	0	1	135	0.00	29.801 
20:45	63.4	63.4	63.4	40	38.7	0	1	135	0.00	29.799 
20:50	63.1	63.1	63.1	41	39.0	0	1	135	0.00	29.801 
20:55	62.7	62.7	62.7	42	39.3	0	1	135	0.00	29.802 
21:00	62.6	62.6	62.6	43	39.8	0	1	135	0.00	29.802 
21:05	62.4	62.4	62.4	43	39.6	0	1	135	0.00	29.802 
21:10	62.3	62.3	62.3	44	40.1	0	1	135	0.00	29.801 
21:15	62.1	62.1	62.1	45	40.5	0	1	135	0.00	29.800 
21:20	62.0	62.0	62.0	46	41.0	0	0	---	0.00	29.800 
21:25	61.6	61.6	61.6	46	40.6	0	0	---	0.00	29.800 
21:30	61.2	61.2	61.2	47	40.8	0	0	---	0.00	29.799 
21:35	60.9	60.9	60.9	48	41.1	0	0	---	0.00	29.798 
21:40	60.2	60.2	60.2	49	41.0	0	0	---	0.00	29.796 
21:45	59.8	59.8	59.8	49	40.6	0	0	---	0.00	29.795 
21:50	59.3	59.3	59.3	51	41.2	0	0	---	0.00	29.796 
21:55	58.9	58.9	58.9	51	40.8	0	0	---	0.00	29.795 
22:00	58.4	58.4	58.4	51	40.3	0	0	---	0.00	29.794 
22:05	58.0	58.0	58.0	52	40.5	0	0	---	0.00	29.792 
22:10	57.6	57.6	57.6	54	41.1	0	0	---	0.00	29.791 
22:15	57.3	57.3	57.3	54	40.8	0	0	---	0.00	29.790 
22:20	57.2	57.2	57.2	56	41.6	0	0	---	0.00	29.789 
22:25	57.0	57.0	57.0	57	41.9	0	0	---	0.00	29.787 
22:30	56.9	56.9	56.9	58	42.3	0	0	---	0.00	29.786 
22:35	56.7	56.7	56.7	59	42.5	0	0	---	0.00	29.785 
22:40	56.6	56.6	56.6	60	42.9	0	0	---	0.00	29.783 
22:45	56.5	56.5	56.5	60	42.8	0	0	---	0.00	29.783 
22:50	56.3	56.3	56.3	61	43.0	0	0	---	0.00	29.784 
22:55	56.2	56.2	56.2	62	43.4	0	0	---	0.00	29.783 
23:00	56.2	56.2	56.2	63	43.8	0	0	---	0.00	29.781 
23:05	56.2	56.2	56.2	63	43.8	0	0	---	0.00	29.777 
23:10	56.3	56.3	56.3	64	44.3	0	0	---	0.00	29.776 
23:15	56.6	56.6	56.6	64	44.6	0	2	135	0.00	29.776 
23:20	56.9	56.9	56.9	64	44.8	0	0	---	0.00	29.775 
23:25	57.0	57.0	57.0	64	44.9	0	2	135	0.00	29.775 
23:30	57.6	57.6	57.6	62	44.7	1	3	135	0.00	29.773 
23:35	58.0	58.0	58.0	61	44.6	0	1	135	0.00	29.773 
23:40	58.3	58.3	58.3	60	44.5	0	1	135	0.00	29.771 
23:45	58.3	58.3	58.3	60	44.5	0	0	---	0.00	29.772 
23:50	58.4	58.4	58.4	60	44.6	0	1	135	0.00	29.770 
23:55	58.4	58.4	58.4	60	44.6	0	0	---	0.00	29.771 

CoCoRaHS
IN-AL-39
A2 Web Hosting
Creative Commons License
GoDaddy
Look for:

loaded 2017-10-19 20:12:36 • last modified 2010-11-18 10:43:29
Privacy PolicyDisclaimer
• wx.awcolley.com is powered by PmWiki v.2002016 •
• all content (unless otherwise noted) © 2017 A W Colley